DLH38 EGKK-EDDF
Flight info
| Callsign | DLH38 |
|---|---|
| Flight time | N/A |
| Altitude | 37000 |
| Route | MIMFO Y312 DVR UL9 KONAN UL607 SPI T180 NIVNU/N0420F230 T847 IMCOM IMCOM1C |
| Aircraft | A320/M-SDE3FGHIRWY/LB1 |
Departure
| Time | 2026-04-15 13:54 |
|---|---|
| Airport | London Gatwick Airport (EGKK) |
Arrival
| Time | N/A |
|---|---|
| Airport | Frankfurt Main Airport (EDDF) |
| Time | Latitude | Longitude | Altitude | Speed | Heading |
|---|---|---|---|---|---|
| 2026-04-15 13:20 | 51.15545 | -0.17098 | 205 ft | 0 kts | 168° |
| 2026-04-15 13:47 | 51.15636 | -0.17093 | 206 ft | 2 kts | 255° |
| 2026-04-15 13:47 | 51.15638 | -0.17079 | 207 ft | 0 kts | 258° |
| 2026-04-15 13:48 | 51.15638 | -0.17080 | 208 ft | 1 kts | 258° |
| 2026-04-15 13:49 | 51.15628 | -0.17152 | 215 ft | 12 kts | 257° |
| 2026-04-15 13:49 | 51.15599 | -0.17293 | 211 ft | 12 kts | 238° |
| 2026-04-15 13:49 | 51.15519 | -0.17304 | 206 ft | 12 kts | 168° |
| 2026-04-15 13:49 | 51.15458 | -0.17283 | 210 ft | 7 kts | 169° |
| 2026-04-15 13:50 | 51.15407 | -0.17266 | 212 ft | 9 kts | 167° |
| 2026-04-15 13:50 | 51.15340 | -0.17242 | 214 ft | 11 kts | 167° |
| 2026-04-15 13:50 | 51.15269 | -0.17199 | 209 ft | 12 kts | 136° |
| 2026-04-15 13:50 | 51.15266 | -0.17083 | 210 ft | 11 kts | 76° |
| 2026-04-15 13:51 | 51.15277 | -0.17004 | 206 ft | 0 kts | 78° |
| 2026-04-15 13:51 | 51.15285 | -0.16943 | 202 ft | 15 kts | 78° |
| 2026-04-15 13:51 | 51.15271 | -0.16824 | 210 ft | 8 kts | 139° |
| 2026-04-15 13:52 | 51.15249 | -0.16813 | 206 ft | 0 kts | 171° |
| 2026-04-15 13:52 | 51.15233 | -0.16809 | 213 ft | 4 kts | 169° |
| 2026-04-15 13:52 | 51.15198 | -0.16798 | 203 ft | 8 kts | 166° |
| 2026-04-15 13:53 | 51.15118 | -0.16832 | 208 ft | 17 kts | 236° |
| 2026-04-15 13:53 | 51.15088 | -0.17050 | 208 ft | 43 kts | 257° |
| 2026-04-15 13:53 | 51.14959 | -0.17899 | 206 ft | 122 kts | 257° |
| 2026-04-15 13:53 | 51.14727 | -0.19322 | 315 ft | 166 kts | 250° |
| 2026-04-15 13:54 | 51.14520 | -0.21063 | 1152 ft | 178 kts | 255° |
| 2026-04-15 13:54 | 51.14298 | -0.23024 | 1919 ft | 193 kts | 254° |
| 2026-04-15 13:54 | 51.14030 | -0.25023 | 2592 ft | 201 kts | 251° |
| 2026-04-15 13:54 | 51.13817 | -0.26381 | 3139 ft | 202 kts | 251° |
| 2026-04-15 13:55 | 51.13738 | -0.26868 | 3349 ft | 201 kts | 251° |
| 2026-04-15 13:55 | 51.13402 | -0.28932 | 3853 ft | 202 kts | 251° |
| 2026-04-15 13:55 | 51.13213 | -0.31033 | 4010 ft | 208 kts | 266° |
| 2026-04-15 13:56 | 51.13550 | -0.33302 | 4173 ft | 217 kts | 289° |
| 2026-04-15 13:56 | 51.14499 | -0.35256 | 4907 ft | 233 kts | 311° |
| 2026-04-15 13:56 | 51.15890 | -0.36502 | 5737 ft | 249 kts | 337° |
| 2026-04-15 13:56 | 51.17614 | -0.36697 | 6549 ft | 265 kts | 7° |
| 2026-04-15 13:57 | 51.19333 | -0.35493 | 7323 ft | 274 kts | 40° |
| 2026-04-15 13:57 | 51.20464 | -0.33181 | 8009 ft | 273 kts | 72° |
| 2026-04-15 13:57 | 51.20787 | -0.30278 | 8726 ft | 265 kts | 101° |
| 2026-04-15 13:57 | 51.20616 | -0.27381 | 9467 ft | 268 kts | 104° |
| 2026-04-15 13:58 | 51.20390 | -0.24389 | 10242 ft | 271 kts | 104° |
| 2026-04-15 13:58 | 51.20242 | -0.21399 | 10986 ft | 280 kts | 91° |
| 2026-04-15 13:58 | 51.20672 | -0.18414 | 11540 ft | 296 kts | 80° |
| 2026-04-15 13:58 | 51.21161 | -0.15150 | 11959 ft | 311 kts | 84° |
| 2026-04-15 13:59 | 51.21585 | -0.11728 | 12357 ft | 328 kts | 85° |
| 2026-04-15 13:59 | 51.22010 | -0.08079 | 12748 ft | 345 kts | 85° |
| 2026-04-15 13:59 | 51.22456 | -0.04280 | 13114 ft | 361 kts | 84° |
| 2026-04-15 13:59 | 51.22936 | -0.00315 | 13442 ft | 378 kts | 84° |
| 2026-04-15 14:00 | 51.23454 | 0.03834 | 13739 ft | 395 kts | 83° |
| 2026-04-15 14:00 | 51.23985 | 0.07989 | 14105 ft | 406 kts | 83° |
| 2026-04-15 14:00 | 51.24561 | 0.12405 | 14705 ft | 410 kts | 83° |
| 2026-04-15 14:00 | 51.25119 | 0.16794 | 15316 ft | 411 kts | 86° |
| 2026-04-15 14:01 | 51.25112 | 0.25445 | 16174 ft | 406 kts | 103° |
| 2026-04-15 14:01 | 51.24767 | 0.29927 | 16744 ft | 409 kts | 103° |
| 2026-04-15 14:01 | 51.24410 | 0.34482 | 17341 ft | 413 kts | 103° |
| 2026-04-15 14:02 | 51.24067 | 0.38874 | 17936 ft | 416 kts | 103° |
| 2026-04-15 14:02 | 51.23702 | 0.43568 | 18483 ft | 419 kts | 103° |
| 2026-04-15 14:02 | 51.23367 | 0.47877 | 18974 ft | 422 kts | 103° |
| 2026-04-15 14:02 | 51.23013 | 0.52431 | 19472 ft | 424 kts | 103° |
| 2026-04-15 14:03 | 51.22660 | 0.57023 | 19959 ft | 427 kts | 103° |
| 2026-04-15 14:03 | 51.22310 | 0.61594 | 20478 ft | 430 kts | 103° |
| 2026-04-15 14:03 | 51.21946 | 0.66306 | 21002 ft | 433 kts | 103° |
| 2026-04-15 14:03 | 51.21589 | 0.70872 | 21485 ft | 435 kts | 103° |
| 2026-04-15 14:04 | 51.21325 | 0.74217 | 21818 ft | 437 kts | 103° |
| 2026-04-15 14:04 | 51.20947 | 0.78974 | 22290 ft | 440 kts | 103° |
| 2026-04-15 14:04 | 51.20562 | 0.83768 | 22759 ft | 443 kts | 104° |
| 2026-04-15 14:04 | 51.20175 | 0.88543 | 23369 ft | 446 kts | 105° |
| 2026-04-15 14:05 | 51.19663 | 0.94976 | 23805 ft | 449 kts | 104° |
| 2026-04-15 14:05 | 51.19385 | 0.98386 | 24011 ft | 451 kts | 104° |
| 2026-04-15 14:05 | 51.18983 | 1.03299 | 24322 ft | 454 kts | 104° |
| 2026-04-15 14:05 | 51.18565 | 1.08366 | 24650 ft | 456 kts | 104° |
| 2026-04-15 14:06 | 51.18152 | 1.13356 | 24956 ft | 458 kts | 104° |
| 2026-04-15 14:06 | 51.17737 | 1.18394 | 25265 ft | 460 kts | 103° |
| 2026-04-15 14:06 | 51.17319 | 1.23405 | 25566 ft | 462 kts | 104° |
| 2026-04-15 14:06 | 51.16894 | 1.28442 | 25857 ft | 464 kts | 104° |
| 2026-04-15 14:07 | 51.16460 | 1.33514 | 26149 ft | 466 kts | 104° |
| 2026-04-15 14:07 | 51.16061 | 1.38437 | 26418 ft | 469 kts | 102° |
| 2026-04-15 14:07 | 51.15734 | 1.43780 | 26699 ft | 473 kts | 101° |
| 2026-04-15 14:07 | 51.15496 | 1.49014 | 26969 ft | 476 kts | 99° |
| 2026-04-15 14:08 | 51.15295 | 1.54290 | 27226 ft | 478 kts | 99° |
| 2026-04-15 14:08 | 51.15099 | 1.59553 | 27480 ft | 480 kts | 99° |
| 2026-04-15 14:08 | 51.14883 | 1.64839 | 27708 ft | 481 kts | 100° |
| 2026-04-15 14:08 | 51.14641 | 1.70117 | 27942 ft | 482 kts | 100° |
| 2026-04-15 14:09 | 51.14374 | 1.75458 | 28161 ft | 484 kts | 101° |
| 2026-04-15 14:09 | 51.14093 | 1.80797 | 28368 ft | 485 kts | 101° |
| 2026-04-15 14:09 | 51.13807 | 1.86156 | 28590 ft | 486 kts | 101° |
| 2026-04-15 14:09 | 51.13520 | 1.91519 | 28880 ft | 486 kts | 101° |
| 2026-04-15 14:10 | 51.13237 | 1.96876 | 29166 ft | 485 kts | 101° |
| 2026-04-15 14:10 | 51.12961 | 2.02145 | 29443 ft | 485 kts | 101° |
| 2026-04-15 14:10 | 51.12676 | 2.07576 | 29728 ft | 485 kts | 101° |
| 2026-04-15 14:10 | 51.12401 | 2.12813 | 30000 ft | 485 kts | 101° |
| 2026-04-15 14:11 | 51.12111 | 2.18228 | 30267 ft | 485 kts | 101° |
| 2026-04-15 14:11 | 51.11822 | 2.23565 | 30513 ft | 484 kts | 101° |
| 2026-04-15 14:11 | 51.11531 | 2.28904 | 30773 ft | 484 kts | 101° |
| 2026-04-15 14:11 | 51.11236 | 2.34240 | 30999 ft | 483 kts | 101° |
| 2026-04-15 14:12 | 51.10940 | 2.39547 | 31245 ft | 483 kts | 101° |
| 2026-04-15 14:12 | 51.10642 | 2.44862 | 31492 ft | 482 kts | 101° |
| 2026-04-15 14:12 | 51.10337 | 2.50238 | 31737 ft | 482 kts | 101° |
| 2026-04-15 14:12 | 51.10036 | 2.55480 | 31977 ft | 481 kts | 101° |
| 2026-04-15 14:13 | 51.09732 | 2.60727 | 32215 ft | 481 kts | 101° |
| 2026-04-15 14:13 | 51.09278 | 2.65939 | 32460 ft | 475 kts | 108° |
| 2026-04-15 14:13 | 51.08440 | 2.70935 | 32702 ft | 471 kts | 112° |
| 2026-04-15 14:13 | 51.07531 | 2.75923 | 32927 ft | 471 kts | 112° |
| 2026-04-15 14:14 | 51.06629 | 2.80888 | 33159 ft | 471 kts | 112° |
| 2026-04-15 14:14 | 51.05722 | 2.85876 | 33387 ft | 471 kts | 112° |
| 2026-04-15 14:14 | 51.04813 | 2.90881 | 33627 ft | 471 kts | 112° |
| 2026-04-15 14:14 | 51.03905 | 2.95872 | 33860 ft | 471 kts | 112° |
| 2026-04-15 14:15 | 51.02996 | 3.00862 | 34091 ft | 471 kts | 112° |
| 2026-04-15 14:15 | 51.02085 | 3.05829 | 34293 ft | 471 kts | 112° |
| 2026-04-15 14:15 | 51.01165 | 3.10814 | 34502 ft | 471 kts | 112° |
| 2026-04-15 14:15 | 51.00247 | 3.15773 | 34708 ft | 470 kts | 112° |
| 2026-04-15 14:16 | 50.99328 | 3.20724 | 34916 ft | 470 kts | 112° |
| 2026-04-15 14:16 | 50.98412 | 3.25655 | 35116 ft | 470 kts | 112° |
| 2026-04-15 14:16 | 50.97483 | 3.30645 | 35314 ft | 469 kts | 112° |
| 2026-04-15 14:16 | 50.96560 | 3.35595 | 35501 ft | 469 kts | 112° |
| 2026-04-15 14:17 | 50.95632 | 3.40554 | 35686 ft | 469 kts | 112° |
| 2026-04-15 14:17 | 50.94702 | 3.45514 | 35856 ft | 468 kts | 112° |
| 2026-04-15 14:17 | 50.93772 | 3.50460 | 36029 ft | 468 kts | 112° |
| 2026-04-15 14:17 | 50.92840 | 3.55404 | 36192 ft | 468 kts | 112° |
| 2026-04-15 14:18 | 50.91907 | 3.60339 | 36351 ft | 467 kts | 112° |
| 2026-04-15 14:18 | 50.90974 | 3.65264 | 36510 ft | 467 kts | 112° |
| 2026-04-15 14:18 | 50.90034 | 3.70188 | 36673 ft | 467 kts | 112° |
| 2026-04-15 14:18 | 50.89096 | 3.75052 | 36821 ft | 466 kts | 112° |
| 2026-04-15 14:19 | 50.88154 | 3.79906 | 36975 ft | 466 kts | 112° |
| 2026-04-15 14:19 | 50.87203 | 3.84793 | 37113 ft | 466 kts | 112° |
| 2026-04-15 14:19 | 50.86248 | 3.89693 | 37144 ft | 468 kts | 112° |
| 2026-04-15 14:20 | 50.84324 | 3.99543 | 37146 ft | 469 kts | 111° |
| 2026-04-15 14:20 | 50.82403 | 4.09372 | 37150 ft | 469 kts | 111° |
| 2026-04-15 14:21 | 50.80471 | 4.19214 | 37158 ft | 470 kts | 111° |
| 2026-04-15 14:21 | 50.78524 | 4.29061 | 37157 ft | 470 kts | 111° |
| 2026-04-15 14:22 | 50.76564 | 4.38914 | 37158 ft | 471 kts | 111° |
| 2026-04-15 14:22 | 50.74593 | 4.48776 | 37159 ft | 472 kts | 111° |
| 2026-04-15 14:23 | 50.72607 | 4.58649 | 37167 ft | 472 kts | 111° |
| 2026-04-15 14:23 | 50.70645 | 4.68504 | 37167 ft | 473 kts | 110° |
| 2026-04-15 14:24 | 50.68732 | 4.78419 | 37164 ft | 473 kts | 110° |
| 2026-04-15 14:24 | 50.66813 | 4.88416 | 37160 ft | 473 kts | 110° |
| 2026-04-15 14:25 | 50.64854 | 4.98313 | 37167 ft | 474 kts | 111° |
| 2026-04-15 14:25 | 50.62808 | 5.08179 | 37165 ft | 474 kts | 111° |
| 2026-04-15 14:26 | 50.60749 | 5.18041 | 37158 ft | 474 kts | 111° |
| 2026-04-15 14:26 | 50.58698 | 5.27906 | 37155 ft | 475 kts | 111° |
| 2026-04-15 14:27 | 50.56644 | 5.37786 | 37156 ft | 475 kts | 110° |
| 2026-04-15 14:27 | 50.54581 | 5.47653 | 37157 ft | 476 kts | 110° |
| 2026-04-15 14:28 | 50.52502 | 5.57519 | 37164 ft | 476 kts | 110° |
| 2026-04-15 14:28 | 50.50454 | 5.67369 | 37170 ft | 476 kts | 109° |
| 2026-04-15 14:29 | 50.48589 | 5.77348 | 37173 ft | 477 kts | 108° |
| 2026-04-15 14:29 | 50.46788 | 5.87340 | 37169 ft | 477 kts | 108° |
| 2026-04-15 14:30 | 50.44939 | 5.97325 | 37172 ft | 477 kts | 108° |
| 2026-04-15 14:30 | 50.43047 | 6.07273 | 37176 ft | 478 kts | 108° |
| 2026-04-15 14:31 | 50.41127 | 6.17252 | 37190 ft | 478 kts | 108° |
| 2026-04-15 14:31 | 50.39211 | 6.27208 | 37181 ft | 478 kts | 108° |
| 2026-04-15 14:32 | 50.37293 | 6.37166 | 37177 ft | 478 kts | 108° |
| 2026-04-15 14:32 | 50.36055 | 6.47345 | 37181 ft | 479 kts | 95° |
| 2026-04-15 14:33 | 50.35464 | 6.57669 | 37186 ft | 477 kts | 95° |
| 2026-04-15 14:33 | 50.34860 | 6.68080 | 37186 ft | 477 kts | 95° |
| 2026-04-15 14:34 | 50.34252 | 6.78345 | 37195 ft | 477 kts | 95° |
| 2026-04-15 14:34 | 50.33629 | 6.88597 | 37199 ft | 477 kts | 95° |
| 2026-04-15 14:35 | 50.32983 | 6.98914 | 37197 ft | 477 kts | 95° |
| 2026-04-15 14:35 | 50.32322 | 7.09202 | 37204 ft | 476 kts | 95° |
| 2026-04-15 14:35 | 50.32243 | 7.14348 | 37215 ft | 474 kts | 83° |
| 2026-04-15 14:36 | 50.32612 | 7.19481 | 37203 ft | 475 kts | 82° |
| 2026-04-15 14:36 | 50.33352 | 7.29752 | 37205 ft | 474 kts | 82° |
| 2026-04-15 14:37 | 50.34070 | 7.40014 | 37215 ft | 474 kts | 82° |
| 2026-04-15 14:37 | 50.34783 | 7.50249 | 37221 ft | 473 kts | 82° |
| 2026-04-15 14:38 | 50.35374 | 7.58772 | 37223 ft | 473 kts | 82° |
| 2026-04-15 14:38 | 50.36171 | 7.70436 | 37228 ft | 473 kts | 82° |
| 2026-04-15 14:39 | 50.36740 | 7.78886 | 37230 ft | 472 kts | 82° |
| 2026-04-15 14:39 | 50.37418 | 7.89007 | 37233 ft | 472 kts | 82° |
| 2026-04-15 14:40 | 50.38100 | 7.99348 | 37232 ft | 471 kts | 82° |
| 2026-04-15 14:40 | 50.38761 | 8.09551 | 37235 ft | 471 kts | 82° |
| 2026-04-15 14:41 | 50.39413 | 8.19770 | 37235 ft | 471 kts | 82° |
| 2026-04-15 14:41 | 50.40060 | 8.29920 | 37238 ft | 470 kts | 82° |
| 2026-04-15 14:42 | 50.40696 | 8.40124 | 37232 ft | 470 kts | 82° |
| 2026-04-15 14:42 | 50.41321 | 8.50303 | 37231 ft | 470 kts | 82° |
| 2026-04-15 14:43 | 50.41938 | 8.60494 | 37231 ft | 469 kts | 82° |
| 2026-04-15 14:43 | 50.42545 | 8.70648 | 37231 ft | 469 kts | 82° |
| 2026-04-15 14:44 | 50.43137 | 8.80819 | 37230 ft | 469 kts | 82° |
| 2026-04-15 14:44 | 50.43721 | 8.90983 | 37232 ft | 468 kts | 82° |
| 2026-04-15 14:45 | 50.44306 | 9.01208 | 37232 ft | 468 kts | 82° |
| 2026-04-15 14:45 | 50.44873 | 9.11358 | 37235 ft | 468 kts | 82° |
| 2026-04-15 14:46 | 50.45429 | 9.21514 | 37231 ft | 467 kts | 82° |
| 2026-04-15 14:46 | 50.45984 | 9.31797 | 37228 ft | 467 kts | 82° |
| 2026-04-15 14:47 | 50.45443 | 9.41926 | 37221 ft | 476 kts | 110° |
| 2026-04-15 14:47 | 50.43805 | 9.46437 | 37224 ft | 480 kts | 129° |
| 2026-04-15 14:47 | 50.41365 | 9.49983 | 37218 ft | 481 kts | 148° |
| 2026-04-15 14:47 | 50.38365 | 9.52226 | 37219 ft | 479 kts | 166° |
| 2026-04-15 14:48 | 50.35060 | 9.53015 | 37224 ft | 476 kts | 180° |
| 2026-04-15 14:48 | 50.28511 | 9.53993 | 37221 ft | 478 kts | 173° |
| 2026-04-15 14:49 | 50.22040 | 9.55564 | 37022 ft | 480 kts | 170° |
| 2026-04-15 14:49 | 50.18836 | 9.56769 | 36614 ft | 479 kts | 166° |
| 2026-04-15 14:49 | 50.15759 | 9.58060 | 36220 ft | 480 kts | 166° |
| 2026-04-15 14:49 | 50.12537 | 9.59422 | 35818 ft | 480 kts | 166° |
| 2026-04-15 14:50 | 50.09271 | 9.60336 | 35416 ft | 477 kts | 180° |
| 2026-04-15 14:50 | 50.05985 | 9.59988 | 35024 ft | 473 kts | 195° |
| 2026-04-15 14:50 | 50.02907 | 9.58415 | 34647 ft | 467 kts | 210° |
| 2026-04-15 14:50 | 50.00179 | 9.55713 | 34213 ft | 460 kts | 224° |
| 2026-04-15 14:51 | 49.97857 | 9.52346 | 33734 ft | 460 kts | 224° |
| 2026-04-15 14:51 | 49.95351 | 9.49244 | 33252 ft | 462 kts | 223° |
| 2026-04-15 14:51 | 49.93051 | 9.45809 | 32767 ft | 456 kts | 236° |
| 2026-04-15 14:51 | 49.91559 | 9.41578 | 32299 ft | 446 kts | 256° |
| 2026-04-15 14:52 | 49.91155 | 9.36889 | 31847 ft | 439 kts | 277° |
| 2026-04-15 14:52 | 49.91876 | 9.32353 | 31401 ft | 435 kts | 297° |
| 2026-04-15 14:52 | 49.93614 | 9.28571 | 30951 ft | 435 kts | 317° |
| 2026-04-15 14:52 | 49.96148 | 9.26033 | 30520 ft | 438 kts | 338° |
| 2026-04-15 14:53 | 49.99144 | 9.25105 | 30055 ft | 445 kts | 359° |
| 2026-04-15 14:53 | 50.02231 | 9.25735 | 29547 ft | 451 kts | 9° |
| 2026-04-15 14:53 | 50.05317 | 9.26680 | 29044 ft | 453 kts | 9° |
| 2026-04-15 14:53 | 50.08419 | 9.27631 | 28557 ft | 455 kts | 9° |
| 2026-04-15 14:54 | 50.11534 | 9.28585 | 28080 ft | 457 kts | 9° |
| 2026-04-15 14:54 | 50.14680 | 9.29387 | 27593 ft | 458 kts | 1° |
| 2026-04-15 14:54 | 50.17818 | 9.29137 | 27147 ft | 456 kts | 349° |
| 2026-04-15 14:54 | 50.20968 | 9.28398 | 26682 ft | 459 kts | 351° |
| 2026-04-15 14:55 | 50.24187 | 9.27787 | 26227 ft | 461 kts | 352° |
| 2026-04-15 14:55 | 50.27385 | 9.27267 | 25785 ft | 463 kts | 352° |
| 2026-04-15 14:55 | 50.30551 | 9.26338 | 25348 ft | 464 kts | 342° |
| 2026-04-15 14:55 | 50.33456 | 9.24257 | 24931 ft | 459 kts | 323° |
| 2026-04-15 14:56 | 50.35704 | 9.20904 | 24513 ft | 454 kts | 305° |
| 2026-04-15 14:56 | 50.37145 | 9.16555 | 24101 ft | 450 kts | 287° |
| 2026-04-15 14:56 | 50.37600 | 9.11744 | 23674 ft | 448 kts | 268° |
| 2026-04-15 14:56 | 50.37036 | 9.06979 | 23182 ft | 445 kts | 250° |
| 2026-04-15 14:57 | 50.35826 | 9.02534 | 22692 ft | 443 kts | 248° |